Time;durP1;ratioP1;P1;durP2;ratioP2;P2;SDS_P1;SDS_P2;PMS_P1;PMS_P2;Temp;Humidity;BMP_temperature;BMP_pressure;BME280_temperature;BME280_humidity;BME280_pressure;Samples;Min_cycle;Max_cycle;Signal;HPM_P1;HPM_P2
2021/12/25 00:02:07;;;;;;;23.05;15.27;;;4.00;93.40;;;;;;5054046;28;20049;-40
2021/12/25 00:04:33;;;;;;;24.38;15.05;;;4.00;93.50;;;;;;5053003;28;20021;-39
2021/12/25 00:06:58;;;;;;;26.38;16.50;;;4.00;93.60;;;;;;5053660;28;20032;-38
2021/12/25 00:09:25;;;;;;;26.63;15.15;;;4.00;93.80;;;;;;5053132;28;20047;-39
2021/12/25 00:11:53;;;;;;;25.45;15.20;;;3.90;94.00;;;;;;5052340;28;20060;-38
2021/12/25 00:14:19;;;;;;;29.63;17.58;;;3.80;94.00;;;;;;5051948;28;20365;-39
2021/12/25 00:16:45;;;;;;;22.98;14.25;;;3.80;94.00;;;;;;5053838;28;20035;-38
2021/12/25 00:19:10;;;;;;;21.67;13.65;;;3.70;93.80;;;;;;5055514;28;20025;-38
2021/12/25 00:21:36;;;;;;;23.95;13.63;;;3.60;93.40;;;;;;5057753;28;20055;-39
2021/12/25 00:24:03;;;;;;;24.30;15.05;;;3.50;93.50;;;;;;5056644;28;20056;-38
2021/12/25 00:32:37;;;;;;;18.92;12.40;;;3.50;93.40;;;;;;5057872;28;20032;-39
2021/12/25 00:34:59;;;;;;;;;;;3.40;93.40;;;;;;5057776;28;20035;-38
2021/12/25 00:37:26;;;;;;;20.00;12.65;;;3.30;93.10;;;;;;5058076;28;19911;-39
2021/12/25 00:39:52;;;;;;;19.52;11.50;;;3.30;93.30;;;;;;5058478;28;20104;-39
2021/12/25 00:42:19;;;;;;;16.30;10.10;;;3.40;93.60;;;;;;5058228;28;20040;-39
2021/12/25 00:44:45;;;;;;;18.00;11.63;;;3.40;93.30;;;;;;5056045;28;20028;-39
2021/12/25 00:47:10;;;;;;;18.35;12.25;;;3.40;93.40;;;;;;5058578;28;20029;-50
2021/12/25 00:49:36;;;;;;;19.38;11.90;;;3.40;93.30;;;;;;5057921;28;20021;-49
2021/12/25 00:52:02;;;;;;;18.60;11.32;;;3.30;92.70;;;;;;5057711;28;20152;-49
2021/12/25 00:54:28;;;;;;;22.20;13.45;;;3.30;93.10;;;;;;5056612;28;20040;-40
2021/12/25 00:56:53;;;;;;;21.55;13.32;;;3.30;92.90;;;;;;5056150;28;20025;-40
2021/12/25 00:59:19;;;;;;;23.27;14.65;;;3.30;93.00;;;;;;5057553;28;20036;-39
2021/12/25 01:01:45;;;;;;;22.65;13.85;;;3.30;93.10;;;;;;5057059;28;20037;-40
2021/12/25 01:04:11;;;;;;;26.70;16.25;;;3.30;92.90;;;;;;5057443;28;20091;-39
2021/12/25 01:06:37;;;;;;;25.73;16.45;;;3.30;93.00;;;;;;5057460;28;20029;-39
2021/12/25 01:09:03;;;;;;;25.95;16.65;;;3.30;93.10;;;;;;5057247;28;20491;-40
2021/12/25 01:11:30;;;;;;;26.55;16.27;;;3.10;93.10;;;;;;5057370;28;20021;-39
2021/12/25 01:14:04;;;;;;;29.23;18.65;;;3.10;93.20;;;;;;5057164;28;20075;-40
2021/12/25 01:25:05;;;;;;;28.15;17.50;;;3.00;92.90;;;;;;5044277;28;20029;-38
2021/12/25 01:30:01;;;;;;;29.33;18.50;;;3.10;92.90;;;;;;5056376;28;20053;-39
2021/12/25 01:32:56;;;;;;;30.08;19.63;;;3.10;92.70;;;;;;5056869;28;20040;-39
2021/12/25 01:41:11;;;;;;;30.70;18.10;;;3.10;93.00;;;;;;5034134;28;20026;-38
2021/12/25 01:49:06;;;;;;;30.58;18.52;;;3.10;93.10;;;;;;5056926;28;20112;-39
2021/12/25 01:51:32;;;;;;;30.27;19.13;;;2.90;92.90;;;;;;5056646;28;20083;-38
2021/12/25 01:53:58;;;;;;;28.00;19.02;;;2.80;92.70;;;;;;5056415;28;20420;-38
2021/12/25 01:56:23;;;;;;;28.75;17.10;;;2.80;92.90;;;;;;5056743;28;20059;-40
2021/12/25 01:58:49;;;;;;;26.63;17.75;;;2.80;92.80;;;;;;5054818;28;20055;-38
2021/12/25 02:01:15;;;;;;;30.63;18.88;;;2.80;92.70;;;;;;5055733;28;20060;-40
2021/12/25 02:03:42;;;;;;;25.45;16.08;;;2.80;92.50;;;;;;5056462;28;20025;-39
2021/12/25 02:06:10;;;;;;;25.20;16.83;;;2.80;92.10;;;;;;5055874;28;20048;-39
2021/12/25 02:08:39;;;;;;;24.17;16.55;;;2.70;92.30;;;;;;5055328;28;20074;-39
2021/12/25 02:11:05;;;;;;;31.15;18.42;;;2.70;92.20;;;;;;5055427;28;20393;-41
2021/12/25 02:13:32;;;;;;;29.15;18.15;;;2.80;92.50;;;;;;5055732;28;20071;-39
2021/12/25 02:15:59;;;;;;;29.23;17.88;;;2.80;92.50;;;;;;5055789;28;20041;-39
2021/12/25 02:23:23;;;;;;;30.23;17.42;;;2.60;92.40;;;;;;5056578;28;20037;-39
2021/12/25 02:25:52;;;;;;;27.30;15.98;;;2.50;92.30;;;;;;5054122;28;20028;-39
2021/12/25 02:28:18;;;;;;;24.88;15.95;;;2.50;92.20;;;;;;5055075;28;20028;-39
2021/12/25 02:30:46;;;;;;;24.77;15.88;;;2.40;92.10;;;;;;5055350;28;20068;-41
2021/12/25 02:33:13;;;;;;;25.85;14.73;;;2.40;92.10;;;;;;5055939;28;20107;-39
2021/12/25 02:35:39;;;;;;;25.42;14.25;;;2.40;91.90;;;;;;5056308;28;20025;-39
2021/12/25 02:38:05;;;;;;;21.42;13.02;;;2.40;91.80;;;;;;5055816;28;20461;-40
2021/12/25 02:40:32;;;;;;;27.40;16.75;;;2.30;91.60;;;;;;5055059;28;20076;-39
2021/12/25 02:42:58;;;;;;;25.33;14.35;;;2.30;91.80;;;;;;5054195;28;20053;-39
2021/12/25 02:45:24;;;;;;;24.83;14.73;;;2.30;91.80;;;;;;5056248;28;20052;-39
2021/12/25 02:47:55;;;;;;;22.88;13.70;;;2.30;91.80;;;;;;5054931;28;20428;-39
2021/12/25 02:50:26;;;;;;;25.92;15.05;;;2.30;91.70;;;;;;5055336;28;20024;-39
2021/12/25 02:52:53;;;;;;;23.70;15.50;;;2.30;91.90;;;;;;5054809;28;20418;-44
2021/12/25 02:55:19;;;;;;;25.08;14.75;;;2.20;91.80;;;;;;5055053;28;20045;-39
2021/12/25 02:57:49;;;;;;;21.58;14.43;;;2.20;91.70;;;;;;5055137;28;20025;-39
2021/12/25 03:00:20;;;;;;;19.83;12.05;;;2.20;91.80;;;;;;5055020;28;20055;-39
2021/12/25 03:02:47;;;;;;;22.45;13.68;;;2.20;91.60;;;;;;5054872;28;20032;-39
2021/12/25 03:05:13;;;;;;;26.10;15.88;;;2.20;91.50;;;;;;5055706;28;20535;-39
2021/12/25 03:07:38;;;;;;;25.98;15.38;;;2.20;91.60;;;;;;5055799;28;20021;-38
2021/12/25 03:10:06;;;;;;;24.70;14.32;;;2.30;91.70;;;;;;5055493;28;20100;-39
2021/12/25 03:12:38;;;;;;;22.73;14.25;;;2.30;91.20;;;;;;5054712;28;20029;-40
2021/12/25 03:15:12;;;;;;;27.15;16.90;;;2.30;91.40;;;;;;5055265;28;20136;-38
2021/12/25 03:17:38;;;;;;;27.10;16.30;;;2.30;91.00;;;;;;5054777;28;20100;-38
2021/12/25 03:20:06;;;;;;;28.00;17.73;;;2.20;91.40;;;;;;5054308;28;20126;-38
2021/12/25 03:22:31;;;;;;;23.67;15.20;;;2.10;91.60;;;;;;5052272;28;20039;-39
2021/12/25 03:24:57;;;;;;;25.52;16.38;;;2.10;91.50;;;;;;5053915;28;20021;-39
2021/12/25 03:27:23;;;;;;;30.63;17.60;;;2.10;91.50;;;;;;5053023;28;20025;-39
2021/12/25 03:29:49;;;;;;;29.02;16.75;;;2.10;91.50;;;;;;5054523;28;20025;-39
2021/12/25 03:32:15;;;;;;;22.00;14.85;;;2.10;91.70;;;;;;5054630;28;20049;-39
2021/12/25 03:34:40;;;;;;;24.98;14.52;;;2.00;91.30;;;;;;5053810;28;20465;-39
2021/12/25 03:37:06;;;;;;;24.70;14.98;;;2.00;91.40;;;;;;5053634;28;20451;-39
2021/12/25 03:39:32;;;;;;;29.30;15.55;;;2.00;91.60;;;;;;5053647;28;20056;-39
2021/12/25 03:41:58;;;;;;;27.00;17.77;;;2.00;91.50;;;;;;5053965;28;20442;-38
2021/12/25 03:44:28;;;;;;;26.17;14.30;;;2.10;91.50;;;;;;5054346;28;20017;-39
2021/12/25 03:47:00;;;;;;;27.77;17.70;;;2.00;91.40;;;;;;5053973;28;20021;-38
2021/12/25 03:49:33;;;;;;;21.45;13.80;;;2.00;91.70;;;;;;5054032;28;20045;-39
2021/12/25 03:57:43;;;;;;;32.88;18.48;;;1.90;91.60;;;;;;5054084;28;20107;-38
2021/12/25 04:00:13;;;;;;;24.98;14.45;;;1.80;91.70;;;;;;5053236;28;20021;-37
2021/12/25 04:02:54;;;;;;;19.15;12.25;;;1.80;91.40;;;;;;5053647;28;20132;-38
2021/12/25 04:05:26;;;;;;;25.85;16.75;;;1.80;91.50;;;;;;5054059;28;20073;-39
2021/12/25 04:10:17;;;;;;;18.92;11.82;;;1.80;91.50;;;;;;5053590;28;20025;-38
2021/12/25 04:12:43;;;;;;;18.77;13.32;;;1.80;91.60;;;;;;5052060;28;20477;-39
2021/12/25 04:15:09;;;;;;;20.58;12.73;;;1.80;91.60;;;;;;5053763;28;20365;-39
2021/12/25 04:17:34;;;;;;;21.52;13.30;;;1.80;91.60;;;;;;5053861;28;20032;-38
2021/12/25 04:20:03;;;;;;;20.15;12.88;;;1.90;91.60;;;;;;5053313;28;20032;-38
2021/12/25 04:22:36;;;;;;;21.65;13.40;;;1.80;91.30;;;;;;5053125;28;20033;-40
2021/12/25 04:25:02;;;;;;;21.63;13.07;;;1.70;91.20;;;;;;5053503;28;20381;-37
2021/12/25 04:27:28;;;;;;;24.17;14.70;;;1.70;91.40;;;;;;5054050;28;20534;-38
2021/12/25 04:30:02;;;;;;;21.67;13.30;;;1.70;91.70;;;;;;5052975;28;20017;-39
2021/12/25 04:32:55;;;;;;;26.60;16.13;;;1.60;91.20;;;;;;5053290;28;20028;-38
2021/12/25 05:02:14;;;;;;;12.60;8.27;;;1.40;90.30;;;;;;5054090;28;20102;-38
2021/12/25 05:04:48;;;;;;;16.52;9.93;;;1.40;90.10;;;;;;5053009;28;20029;-39
2021/12/25 05:07:14;;;;;;;18.08;11.73;;;1.30;90.20;;;;;;5055379;28;20029;-39
2021/12/25 05:09:40;;;;;;;14.27;9.88;;;1.40;90.30;;;;;;5057309;28;20032;-38
2021/12/25 05:12:07;;;;;;;19.15;10.85;;;1.40;90.20;;;;;;5055728;28;20029;-38
2021/12/25 05:14:33;;;;;;;12.80;9.13;;;1.40;90.00;;;;;;5056941;28;20371;-39
2021/12/25 05:16:58;;;;;;;17.55;9.40;;;1.40;89.90;;;;;;5056751;28;20028;-38
2021/12/25 05:19:25;;;;;;;16.02;9.60;;;1.30;89.90;;;;;;5057187;28;20439;-38
2021/12/25 05:21:51;;;;;;;17.80;10.18;;;1.30;90.00;;;;;;5057291;28;20017;-38
2021/12/25 05:24:17;;;;;;;15.95;10.25;;;1.20;89.80;;;;;;5056461;28;20025;-38
2021/12/25 05:26:43;;;;;;;14.90;9.52;;;1.20;90.10;;;;;;5056682;28;20073;-38
2021/12/25 05:29:08;;;;;;;15.88;10.38;;;1.30;89.80;;;;;;5056853;28;20013;-37
2021/12/25 05:31:36;;;;;;;13.82;9.60;;;1.20;89.40;;;;;;5056768;28;20025;-37
2021/12/25 05:34:04;;;;;;;11.95;7.78;;;1.20;89.50;;;;;;5056191;28;20330;-37
2021/12/25 05:36:30;;;;;;;12.48;7.85;;;1.10;89.00;;;;;;5056330;28;20044;-38
2021/12/25 05:38:59;;;;;;;10.48;8.40;;;1.10;89.10;;;;;;5055096;28;20399;-38
2021/12/25 05:41:30;;;;;;;10.40;7.28;;;1.20;89.20;;;;;;5056410;28;20029;-39
2021/12/25 05:43:56;;;;;;;14.00;8.02;;;1.20;88.80;;;;;;5055004;28;20409;-37
2021/12/25 05:46:22;;;;;;;12.32;8.48;;;1.10;88.80;;;;;;5054986;28;20028;-38
2021/12/25 05:48:50;;;;;;;15.80;10.02;;;1.10;88.80;;;;;;5056030;28;20029;-38
2021/12/25 05:51:17;;;;;;;13.63;9.45;;;1.10;89.20;;;;;;5056391;28;20024;-38
2021/12/25 05:53:43;;;;;;;16.55;7.95;;;1.10;89.10;;;;;;5056573;28;20033;-38
2021/12/25 05:56:09;;;;;;;16.63;7.95;;;1.20;89.00;;;;;;5056162;28;20029;-38
2021/12/25 05:58:34;;;;;;;12.75;8.32;;;1.00;88.70;;;;;;5056311;28;20083;-38
2021/12/25 06:01:01;;;;;;;11.50;8.52;;;1.00;88.80;;;;;;5055911;28;20497;-40
2021/12/25 06:03:26;;;;;;;15.07;7.30;;;1.10;88.90;;;;;;5056408;28;20086;-38
2021/12/25 06:05:52;;;;;;;11.75;7.68;;;0.90;88.80;;;;;;5055758;28;20033;-38
2021/12/25 06:08:18;;;;;;;16.25;8.27;;;0.90;89.00;;;;;;5056663;28;20064;-38
2021/12/25 06:10:44;;;;;;;14.35;8.73;;;0.90;89.10;;;;;;5055802;28;20017;-38
2021/12/25 06:13:11;;;;;;;9.68;6.97;;;0.90;88.80;;;;;;5055703;28;20139;-39
2021/12/25 06:15:37;;;;;;;10.10;7.28;;;0.90;88.80;;;;;;5055447;28;20043;-38
2021/12/25 06:18:03;;;;;;;9.40;7.20;;;0.80;88.60;;;;;;5056216;28;20495;-38
2021/12/25 06:20:29;;;;;;;13.20;7.00;;;0.80;89.00;;;;;;5055529;28;20076;-38
2021/12/25 06:22:55;;;;;;;10.70;7.60;;;0.80;89.10;;;;;;5053949;28;20090;-38
2021/12/25 06:25:20;;;;;;;9.32;7.53;;;0.80;89.10;;;;;;5055641;28;20024;-38
2021/12/25 06:27:46;;;;;;;11.23;7.80;;;0.90;89.20;;;;;;5055775;28;20342;-38
2021/12/25 06:30:15;;;;;;;9.38;6.78;;;0.80;89.10;;;;;;5054947;28;20430;-38
2021/12/25 06:32:41;;;;;;;13.20;8.18;;;0.80;89.50;;;;;;5055659;28;20025;-39
2021/12/25 06:35:07;;;;;;;13.05;7.75;;;0.70;89.40;;;;;;5055619;28;20445;-39
2021/12/25 06:37:33;;;;;;;13.07;8.10;;;0.60;89.70;;;;;;5055459;28;20105;-38
2021/12/25 06:39:58;;;;;;;12.48;6.25;;;0.60;89.60;;;;;;5055308;28;20104;-39
2021/12/25 06:42:24;;;;;;;13.35;6.28;;;0.60;89.30;;;;;;5053805;28;20387;-38
2021/12/25 06:44:50;;;;;;;10.93;7.03;;;0.50;89.40;;;;;;5053992;28;20025;-38
2021/12/25 06:47:15;;;;;;;9.40;6.40;;;0.50;89.20;;;;;;5054632;28;20032;-38
2021/12/25 06:49:41;;;;;;;12.77;7.63;;;0.50;89.20;;;;;;5055171;28;20027;-38
2021/12/25 06:52:07;;;;;;;9.63;6.68;;;0.40;89.40;;;;;;5055347;28;20063;-38
2021/12/25 06:54:34;;;;;;;7.72;5.57;;;0.50;89.30;;;;;;5055152;28;20031;-37
2021/12/25 06:57:01;;;;;;;11.55;8.32;;;0.40;88.90;;;;;;5055811;28;20032;-38
2021/12/25 06:59:28;;;;;;;17.20;8.00;;;0.40;89.30;;;;;;5054520;28;20066;-37
2021/12/25 07:01:54;;;;;;;14.10;9.07;;;0.50;89.30;;;;;;5054386;28;20053;-38
2021/12/25 07:04:19;;;;;;;20.67;9.18;;;0.50;89.20;;;;;;5054423;28;20028;-38
2021/12/25 07:06:45;;;;;;;12.75;6.65;;;0.50;89.20;;;;;;5054382;28;20025;-38
2021/12/25 07:09:11;;;;;;;16.42;6.60;;;0.40;88.80;;;;;;5054420;28;20119;-39
2021/12/25 07:11:37;;;;;;;9.77;6.93;;;0.40;89.00;;;;;;5054879;28;20107;-38
2021/12/25 07:14:05;;;;;;;11.20;8.05;;;0.30;88.90;;;;;;5054835;28;20058;-39
2021/12/25 07:16:31;;;;;;;14.25;7.93;;;0.40;89.20;;;;;;5054033;28;20055;-38
2021/12/25 07:18:57;;;;;;;11.95;8.30;;;0.40;88.90;;;;;;5054545;28;20043;-38
2021/12/25 07:21:24;;;;;;;14.65;8.07;;;0.40;89.00;;;;;;5054512;28;20029;-39
2021/12/25 07:23:49;;;;;;;14.68;8.82;;;0.40;88.40;;;;;;5054613;28;20033;-38
2021/12/25 07:26:17;;;;;;;11.50;8.38;;;0.40;88.80;;;;;;5054529;28;20495;-38
2021/12/25 07:28:44;;;;;;;12.23;8.55;;;0.50;88.50;;;;;;5052000;28;20029;-38
2021/12/25 07:31:09;;;;;;;9.93;7.13;;;0.40;88.70;;;;;;5052607;28;20044;-40
2021/12/25 07:33:40;;;;;;;12.60;8.43;;;0.30;88.50;;;;;;5054303;28;20024;-38
2021/12/25 07:36:08;;;;;;;9.70;6.63;;;0.30;88.60;;;;;;5054552;28;20059;-39
2021/12/25 07:38:34;;;;;;;10.88;7.47;;;0.30;88.20;;;;;;5053763;28;20104;-38
2021/12/25 07:41:00;;;;;;;18.60;8.52;;;0.30;88.30;;;;;;5054185;28;20052;-39
2021/12/25 07:43:25;;;;;;;11.52;7.53;;;0.30;88.00;;;;;;5053560;28;20021;-38
2021/12/25 07:45:52;;;;;;;9.80;7.28;;;0.20;87.50;;;;;;5053902;28;20021;-38
2021/12/25 07:48:20;;;;;;;11.38;7.30;;;0.10;87.80;;;;;;5053419;28;20029;-38
2021/12/25 07:50:47;;;;;;;10.50;6.93;;;0.30;87.70;;;;;;5053672;28;20416;-38
2021/12/25 07:53:12;;;;;;;10.50;6.18;;;0.20;87.60;;;;;;5053907;28;20461;-39
2021/12/25 07:55:38;;;;;;;9.65;6.85;;;0.20;87.30;;;;;;5053735;28;20048;-39
2021/12/25 07:58:05;;;;;;;11.77;7.32;;;0.30;87.70;;;;;;5052341;28;20031;-39
2021/12/25 08:00:30;;;;;;;9.32;6.72;;;0.20;87.40;;;;;;5052677;28;20480;-39
2021/12/25 08:02:56;;;;;;;6.97;5.43;;;0.30;87.60;;;;;;5053323;28;20044;-39
2021/12/25 08:05:22;;;;;;;9.63;6.32;;;0.20;86.70;;;;;;5053474;28;20381;-39
2021/12/25 08:07:48;;;;;;;10.27;6.53;;;0.20;87.30;;;;;;5054005;28;20017;-52
2021/12/25 08:10:16;;;;;;;9.38;5.93;;;0.10;86.90;;;;;;5053387;28;20036;-48
2021/12/25 08:12:56;;;;;;;7.20;6.00;;;0.20;86.80;;;;;;5053954;28;20033;-49
2021/12/25 08:15:27;;;;;;;12.30;5.75;;;0.20;86.40;;;;;;5053616;28;20103;-51
2021/12/25 08:17:55;;;;;;;7.65;5.03;;;0.20;86.30;;;;;;5053323;28;20033;-50
2021/12/25 08:20:20;;;;;;;8.07;5.22;;;0.20;86.20;;;;;;5052549;28;20037;-51
2021/12/25 08:22:47;;;;;;;5.82;4.50;;;0.20;86.20;;;;;;5052108;28;20047;-51
2021/12/25 08:25:14;;;;;;;8.65;4.20;;;0.20;86.40;;;;;;5053833;28;20385;-50
2021/12/25 08:27:42;;;;;;;7.60;4.78;;;0.20;86.20;;;;;;5054238;28;20025;-50
2021/12/25 08:30:11;;;;;;;15.05;4.97;;;0.30;86.10;;;;;;5053632;28;20029;-50
2021/12/25 08:32:41;;;;;;;4.35;3.17;;;0.30;86.10;;;;;;5053205;28;20032;-52
2021/12/25 08:35:09;;;;;;;7.57;3.40;;;0.10;85.20;;;;;;5053909;28;20029;-48
2021/12/25 08:37:35;;;;;;;4.82;3.30;;;0.10;85.50;;;;;;5053509;28;20736;-49
2021/12/25 08:40:02;;;;;;;6.43;3.15;;;0.10;85.50;;;;;;5056448;28;20052;-52
2021/12/25 08:42:28;;;;;;;5.72;2.78;;;0.00;85.30;;;;;;5057904;28;20473;-52
2021/12/25 08:45:05;;;;;;;2.80;2.20;;;0.00;85.00;;;;;;5057477;28;20096;-51
2021/12/25 08:47:36;;;;;;;9.35;3.58;;;-3276.70;85.00;;;;;;5057906;28;20021;-49
2021/12/25 08:50:07;;;;;;;5.10;2.55;;;0.00;85.20;;;;;;5057820;28;20021;-52
2021/12/25 08:52:33;;;;;;;4.07;2.97;;;0.00;85.00;;;;;;5056857;28;20510;-52
2021/12/25 08:54:58;;;;;;;4.07;2.92;;;0.00;84.90;;;;;;5056000;28;20053;-52
2021/12/25 08:57:25;;;;;;;3.03;2.10;;;0.10;84.90;;;;;;5057267;28;20029;-50
2021/12/25 08:59:53;;;;;;;7.05;3.45;;;-3276.70;84.30;;;;;;5057432;28;20326;-50
2021/12/25 09:02:20;;;;;;;5.47;2.15;;;0.00;84.60;;;;;;5054799;28;20600;-55
2021/12/25 09:04:47;;;;;;;4.28;2.30;;;-3276.70;84.40;;;;;;5056968;28;20021;-49
2021/12/25 09:07:13;;;;;;;4.65;2.20;;;-3276.70;84.10;;;;;;5056836;28;20044;-50
2021/12/25 09:09:40;;;;;;;3.10;1.90;;;-3276.70;84.40;;;;;;5056634;28;20029;-49
2021/12/25 09:12:09;;;;;;;3.45;2.35;;;-3276.70;84.10;;;;;;5056535;28;20037;-51
2021/12/25 09:14:35;;;;;;;6.70;3.42;;;-3276.70;83.90;;;;;;5056426;28;20385;-51
2021/12/25 09:17:01;;;;;;;2.30;1.67;;;-3276.60;83.80;;;;;;5056072;28;20032;-50
2021/12/25 09:19:27;;;;;;;4.15;2.33;;;-3276.60;83.70;;;;;;5055034;28;20033;-49
2021/12/25 09:21:52;;;;;;;4.20;2.70;;;-3276.60;83.60;;;;;;5056127;28;20033;-50
2021/12/25 09:24:18;;;;;;;5.40;2.05;;;-3276.50;83.80;;;;;;5056308;28;20021;-54
2021/12/25 09:26:44;;;;;;;5.07;2.20;;;-3276.50;83.40;;;;;;5055325;28;20036;-50
2021/12/25 09:29:10;;;;;;;4.53;1.95;;;-3276.50;83.80;;;;;;5055978;28;20396;-51
2021/12/25 09:31:35;;;;;;;3.47;1.60;;;-3276.50;83.60;;;;;;5056082;28;20032;-53
2021/12/25 09:34:02;;;;;;;2.95;2.03;;;-3276.60;83.20;;;;;;5055914;28;20032;-51
2021/12/25 09:36:29;;;;;;;2.33;1.70;;;-3276.60;83.30;;;;;;5057087;28;20108;-54
2021/12/25 09:38:55;;;;;;;3.63;1.83;;;-3276.60;83.00;;;;;;5054905;28;20029;-52
2021/12/25 09:41:21;;;;;;;4.60;2.03;;;-3276.60;82.70;;;;;;5056505;28;20031;-51
2021/12/25 09:43:48;;;;;;;4.70;2.03;;;-3276.70;82.90;;;;;;5055941;28;20416;-50
2021/12/25 09:46:20;;;;;;;4.15;2.05;;;-3276.70;82.60;;;;;;5056265;28;20025;-54
2021/12/25 09:48:47;;;;;;;11.32;2.08;;;-3276.70;82.30;;;;;;5055345;28;20025;-51
2021/12/25 09:51:13;;;;;;;4.32;2.55;;;-3276.70;82.10;;;;;;5053727;28;20017;-49
2021/12/25 09:53:39;;;;;;;2.65;1.35;;;-3276.60;82.20;;;;;;5054517;28;20036;-51
2021/12/25 09:56:06;;;;;;;4.97;2.17;;;-3276.60;82.40;;;;;;5056362;28;20017;-52
2021/12/25 09:58:32;;;;;;;2.08;1.83;;;-3276.60;82.60;;;;;;5055585;28;20025;-53
2021/12/25 10:00:57;;;;;;;2.50;1.20;;;-3276.60;82.00;;;;;;5056031;28;20048;-50
2021/12/25 10:03:28;;;;;;;3.08;2.20;;;-3276.50;81.70;;;;;;5056196;28;20031;-49
2021/12/25 10:05:54;;;;;;;;;;;-3276.60;82.00;;;;;;5054833;28;20032;-49
2021/12/25 10:08:24;;;;;;;1.52;1.42;;;-3276.50;81.90;;;;;;5055761;28;19904;-53
2021/12/25 10:10:51;;;;;;;2.40;1.15;;;-3276.60;82.00;;;;;;5056458;28;20029;-51
2021/12/25 10:13:28;;;;;;;2.95;1.83;;;-3276.50;81.70;;;;;;5056494;28;20037;-51
2021/12/25 10:16:00;;;;;;;3.83;1.92;;;-3276.60;81.90;;;;;;5054396;28;20033;-53
2021/12/25 10:18:31;;;;;;;2.97;1.85;;;-3276.60;81.90;;;;;;5055050;28;20028;-53
2021/12/25 10:21:18;;;;;;;4.22;2.20;;;-3276.70;81.30;;;;;;5056236;28;20061;-53
2021/12/25 10:23:44;;;;;;;4.53;2.03;;;-3276.60;81.20;;;;;;5056328;28;20033;-51
2021/12/25 10:26:10;;;;;;;4.82;1.75;;;-3276.50;81.40;;;;;;5055589;28;20044;-49
2021/12/25 10:28:39;;;;;;;4.30;1.65;;;-3276.50;81.60;;;;;;5055111;28;20025;-50
2021/12/25 10:31:16;;;;;;;2.75;1.40;;;-3276.60;81.50;;;;;;5054491;28;20074;-50
2021/12/25 10:33:53;;;;;;;9.75;1.65;;;-3276.70;81.70;;;;;;5055205;28;20028;-51
2021/12/25 10:36:24;;;;;;;1.75;1.50;;;-3276.70;81.10;;;;;;5054623;28;20036;-53
2021/12/25 10:39:05;;;;;;;1.98;1.33;;;-3276.50;80.90;;;;;;5054798;28;20107;-40
2021/12/25 10:41:34;;;;;;;3.92;1.73;;;-3276.50;81.10;;;;;;5055128;28;20036;-39
2021/12/25 10:44:15;;;;;;;3.90;1.85;;;-3276.60;81.10;;;;;;5055417;28;20033;-41
2021/12/25 10:46:57;;;;;;;3.60;2.00;;;-3276.70;81.10;;;;;;5054694;28;20025;-40
2021/12/25 10:49:37;;;;;;;2.63;1.67;;;-3276.70;80.30;;;;;;5053303;28;20377;-39
2021/12/25 10:52:14;;;;;;;3.35;2.35;;;-3276.70;80.40;;;;;;5053317;28;20025;-39
2021/12/25 10:54:46;;;;;;;2.63;1.85;;;-3276.70;80.40;;;;;;5054633;28;20385;-39
2021/12/25 10:57:49;;;;;;;5.70;2.42;;;-3276.70;79.80;;;;;;5054622;28;20424;-39
2021/12/25 11:00:25;;;;;;;3.10;1.70;;;-3276.70;80.20;;;;;;5032501;28;20381;-39
2021/12/25 11:03:08;;;;;;;1.27;1.15;;;0.00;80.10;;;;;;5046174;28;20068;-39
2021/12/25 11:05:43;;;;;;;5.93;2.45;;;-3276.70;79.70;;;;;;5054364;28;20021;-39
2021/12/25 11:08:12;;;;;;;3.00;1.75;;;-3276.70;80.30;;;;;;5054543;28;20033;-39
2021/12/25 11:10:43;;;;;;;2.65;2.00;;;0.00;79.60;;;;;;5055063;28;20464;-39
2021/12/25 11:13:37;;;;;;;2.17;1.80;;;0.00;79.50;;;;;;5053084;28;20110;-39
2021/12/25 11:16:12;;;;;;;2.67;1.88;;;0.10;79.40;;;;;;5053514;28;20040;-40
2021/12/25 11:19:04;;;;;;;3.10;1.48;;;0.00;79.40;;;;;;5053881;28;20124;-38
2021/12/25 11:21:36;;;;;;;7.70;2.47;;;0.00;79.60;;;;;;5052918;28;20025;-39
2021/12/25 11:24:19;;;;;;;3.38;2.10;;;0.10;79.90;;;;;;5054132;28;20028;-39
2021/12/25 11:26:48;;;;;;;3.40;1.92;;;0.10;79.30;;;;;;5054425;28;20029;-39
2021/12/25 11:29:16;;;;;;;2.42;1.83;;;0.10;79.00;;;;;;5054237;28;20070;-39
2021/12/25 11:31:43;;;;;;;5.00;2.17;;;0.10;78.90;;;;;;5052878;28;20489;-40
2021/12/25 11:34:09;;;;;;;2.30;1.50;;;0.10;78.60;;;;;;5053429;28;20036;-38
2021/12/25 11:36:47;;;;;;;3.25;2.13;;;0.10;79.00;;;;;;5052594;28;20521;-40
2021/12/25 11:39:15;;;;;;;4.50;2.30;;;0.30;78.70;;;;;;5054589;28;20031;-39
2021/12/25 11:41:42;;;;;;;5.57;3.03;;;0.30;77.90;;;;;;5053607;28;20025;-39
2021/12/25 11:44:42;;;;;;;3.60;1.98;;;0.40;78.20;;;;;;5053930;28;20025;-39
2021/12/25 11:47:29;;;;;;;4.70;1.80;;;0.50;77.90;;;;;;5053873;28;20504;-39
2021/12/25 11:49:58;;;;;;;4.00;1.90;;;0.40;77.70;;;;;;5038576;28;20041;-39
2021/12/25 11:52:29;;;;;;;4.75;1.90;;;0.50;77.20;;;;;;5053631;28;20071;-39
2021/12/25 11:55:22;;;;;;;1.92;1.38;;;0.40;76.90;;;;;;5054165;28;20025;-39
2021/12/25 12:00:14;;;;;;;3.63;1.65;;;0.50;76.40;;;;;;5051919;28;20477;-38
2021/12/25 12:02:43;;;;;;;4.38;1.77;;;0.50;76.60;;;;;;5053013;28;20060;-38
2021/12/25 12:05:27;;;;;;;2.15;1.65;;;0.60;76.50;;;;;;5053594;28;20029;-39
2021/12/25 12:08:05;;;;;;;4.30;1.63;;;0.50;75.70;;;;;;5053626;28;20028;-39
2021/12/25 12:10:46;;;;;;;3.70;1.35;;;0.60;75.80;;;;;;5053934;28;20035;-39
2021/12/25 12:13:19;;;;;;;3.83;1.80;;;0.50;75.50;;;;;;5053784;28;20035;-39
2021/12/25 12:15:57;;;;;;;3.50;1.65;;;0.60;75.30;;;;;;5052979;28;20056;-39
2021/12/25 12:18:31;;;;;;;1.45;1.23;;;0.60;75.50;;;;;;5053354;28;20036;-39
2021/12/25 12:21:06;;;;;;;1.85;1.50;;;0.70;75.40;;;;;;5052131;28;20159;-38
2021/12/25 12:24:28;;;;;;;5.57;1.92;;;0.80;74.70;;;;;;5053852;28;20108;-39
2021/12/25 12:26:45;;;;;;;2.65;1.63;;;0.90;74.40;;;;;;5053167;28;20143;-38
2021/12/25 12:29:35;;;;;;;1.77;1.27;;;0.80;74.00;;;;;;5053317;28;20081;-40
2021/12/25 12:32:00;;;;;;;1.77;1.10;;;0.80;73.30;;;;;;5054253;28;20071;-38
2021/12/25 12:34:29;;;;;;;1.88;1.40;;;0.80;72.90;;;;;;5053217;28;20021;-39
2021/12/25 12:37:25;;;;;;;3.10;1.67;;;1.00;72.60;;;;;;5053242;28;20025;-38
2021/12/25 12:39:54;;;;;;;3.00;1.40;;;1.10;72.20;;;;;;5053478;28;20385;-39
2021/12/25 12:42:21;;;;;;;1.52;1.42;;;0.90;71.20;;;;;;5054310;28;20491;-38
2021/12/25 12:44:53;;;;;;;1.48;1.27;;;0.90;70.20;;;;;;5053870;28;20029;-39
2021/12/25 12:47:18;;;;;;;1.65;1.17;;;0.90;69.20;;;;;;5053695;28;20032;-38
2021/12/25 12:49:50;;;;;;;2.50;1.20;;;0.90;69.60;;;;;;5053082;28;20021;-37
2021/12/25 12:52:27;;;;;;;1.77;1.00;;;0.90;69.30;;;;;;5053875;28;20047;-38
2021/12/25 12:55:13;;;;;;;1.13;1.02;;;1.10;69.20;;;;;;5053928;28;20035;-37
2021/12/25 12:57:44;;;;;;;4.88;2.15;;;1.10;68.40;;;;;;5049351;28;20037;-39
2021/12/25 13:00:18;;;;;;;3.15;1.58;;;1.10;66.80;;;;;;5053443;28;20477;-38
2021/12/25 13:02:50;;;;;;;5.57;2.33;;;1.10;66.80;;;;;;5053292;28;20106;-39
2021/12/25 13:05:30;;;;;;;1.52;0.93;;;1.20;65.30;;;;;;5055131;28;20075;-40
2021/12/25 13:07:58;;;;;;;1.58;0.93;;;1.10;64.70;;;;;;5053853;28;20102;-38
2021/12/25 13:13:25;;;;;;;2.92;1.60;;;1.10;65.10;;;;;;5053572;28;20130;-38
2021/12/25 13:16:10;;;;;;;2.55;1.58;;;1.30;63.30;;;;;;5054311;28;20108;-39
2021/12/25 13:18:42;;;;;;;0.70;0.70;;;1.30;63.40;;;;;;5053585;28;20040;-39
2021/12/25 13:21:10;;;;;;;1.92;0.82;;;1.20;59.90;;;;;;5054139;28;20082;-39
2021/12/25 13:23:46;;;;;;;0.68;0.68;;;1.10;59.90;;;;;;5052777;28;20057;-38
2021/12/25 13:26:14;;;;;;;0.90;0.60;;;1.00;58.60;;;;;;5054539;28;20536;-40
2021/12/25 13:28:42;;;;;;;3.47;1.80;;;1.10;59.10;;;;;;5058053;28;20021;-40
2021/12/25 13:31:18;;;;;;;1.02;0.75;;;1.10;59.10;;;;;;5056887;28;20021;-39
2021/12/25 13:33:50;;;;;;;1.75;0.90;;;1.00;58.00;;;;;;5056725;28;20420;-39
2021/12/25 13:36:24;;;;;;;0.90;0.82;;;0.90;57.50;;;;;;5056398;28;20393;-39
2021/12/25 13:38:56;;;;;;;1.45;0.90;;;1.00;58.30;;;;;;5055580;28;20052;-39
2021/12/25 13:41:35;;;;;;;3.50;0.82;;;0.90;57.70;;;;;;5055241;28;20071;-38
2021/12/25 13:44:25;;;;;;;6.25;0.70;;;0.90;56.80;;;;;;5057191;28;20089;-42
2021/12/25 13:47:02;;;;;;;1.17;1.10;;;1.00;57.00;;;;;;5057450;28;20032;-38
2021/12/25 13:49:41;;;;;;;2.38;0.70;;;1.00;56.40;;;;;;5057075;28;20097;-40
2021/12/25 13:52:06;;;;;;;2.97;1.70;;;0.90;56.50;;;;;;5055394;28;20385;-40
2021/12/25 13:54:35;;;;;;;2.28;1.50;;;0.90;56.80;;;;;;5056486;28;20021;-39
2021/12/25 13:57:01;;;;;;;3.42;0.90;;;0.90;56.70;;;;;;5056299;28;20021;-39
2021/12/25 13:59:27;;;;;;;1.35;0.73;;;1.00;56.80;;;;;;5055880;28;20028;-40
2021/12/25 14:01:56;;;;;;;1.30;0.90;;;0.90;55.10;;;;;;5055467;28;20079;-38
2021/12/25 14:04:22;;;;;;;1.33;0.65;;;0.80;55.00;;;;;;5056060;28;20021;-39
2021/12/25 14:06:48;;;;;;;2.22;0.70;;;0.80;55.10;;;;;;5054385;28;20071;-38
2021/12/25 14:09:14;;;;;;;4.05;1.98;;;0.90;55.10;;;;;;5054596;28;20025;-39